sensor_id;sensor_type;location;lat;lon;timestamp;P1;durP1;ratioP1;P2;durP2;ratioP2
56181;SDS011;51963;46.052;14.544;2023-01-15T00:03:22;40.67;;;17.95;;
56181;SDS011;51963;46.052;14.544;2023-01-15T00:05:48;43.13;;;18.20;;
56181;SDS011;51963;46.052;14.544;2023-01-15T00:08:14;62.55;;;20.25;;
56181;SDS011;51963;46.052;14.544;2023-01-15T00:10:39;38.90;;;18.98;;
56181;SDS011;51963;46.052;14.544;2023-01-15T00:13:05;39.85;;;17.42;;
56181;SDS011;51963;46.052;14.544;2023-01-15T00:15:31;45.83;;;19.17;;
56181;SDS011;51963;46.052;14.544;2023-01-15T00:17:57;44.13;;;19.75;;
56181;SDS011;51963;46.052;14.544;2023-01-15T00:20:22;38.45;;;18.08;;
56181;SDS011;51963;46.052;14.544;2023-01-15T00:22:48;42.13;;;18.98;;
56181;SDS011;51963;46.052;14.544;2023-01-15T00:25:14;41.85;;;19.35;;
56181;SDS011;51963;46.052;14.544;2023-01-15T00:27:58;33.70;;;17.67;;
56181;SDS011;51963;46.052;14.544;2023-01-15T00:30:24;37.90;;;18.45;;
56181;SDS011;51963;46.052;14.544;2023-01-15T00:32:50;36.90;;;18.90;;
56181;SDS011;51963;46.052;14.544;2023-01-15T00:35:17;35.65;;;17.38;;
56181;SDS011;51963;46.052;14.544;2023-01-15T00:37:45;39.45;;;18.65;;
56181;SDS011;51963;46.052;14.544;2023-01-15T00:40:11;40.67;;;19.23;;
56181;SDS011;51963;46.052;14.544;2023-01-15T00:42:38;41.13;;;18.65;;
56181;SDS011;51963;46.052;14.544;2023-01-15T00:45:04;40.85;;;17.45;;
56181;SDS011;51963;46.052;14.544;2023-01-15T00:47:38;48.67;;;18.40;;
56181;SDS011;51963;46.052;14.544;2023-01-15T00:50:06;37.45;;;18.48;;
56181;SDS011;51963;46.052;14.544;2023-01-15T00:52:34;37.72;;;18.08;;
56181;SDS011;51963;46.052;14.544;2023-01-15T00:55:00;35.30;;;17.10;;
56181;SDS011;51963;46.052;14.544;2023-01-15T00:57:28;34.83;;;16.48;;
56181;SDS011;51963;46.052;14.544;2023-01-15T00:59:54;35.53;;;17.13;;
56181;SDS011;51963;46.052;14.544;2023-01-15T01:02:20;44.58;;;20.15;;
56181;SDS011;51963;46.052;14.544;2023-01-15T01:04:46;44.22;;;18.05;;
56181;SDS011;51963;46.052;14.544;2023-01-15T01:07:12;33.85;;;17.15;;
56181;SDS011;51963;46.052;14.544;2023-01-15T01:09:38;33.85;;;16.80;;
56181;SDS011;51963;46.052;14.544;2023-01-15T01:12:04;36.40;;;17.13;;
56181;SDS011;51963;46.052;14.544;2023-01-15T01:14:30;35.35;;;16.55;;
56181;SDS011;51963;46.052;14.544;2023-01-15T01:16:56;37.63;;;18.15;;
56181;SDS011;51963;46.052;14.544;2023-01-15T01:19:22;36.33;;;17.75;;
56181;SDS011;51963;46.052;14.544;2023-01-15T01:21:50;32.28;;;16.83;;
56181;SDS011;51963;46.052;14.544;2023-01-15T01:24:17;35.50;;;17.52;;
56181;SDS011;51963;46.052;14.544;2023-01-15T01:26:48;39.00;;;17.73;;
56181;SDS011;51963;46.052;14.544;2023-01-15T01:29:17;38.40;;;18.00;;
56181;SDS011;51963;46.052;14.544;2023-01-15T01:31:44;44.85;;;19.63;;
56181;SDS011;51963;46.052;14.544;2023-01-15T01:34:10;37.00;;;17.08;;
56181;SDS011;51963;46.052;14.544;2023-01-15T01:36:37;36.35;;;16.02;;
56181;SDS011;51963;46.052;14.544;2023-01-15T01:39:06;34.70;;;15.70;;
56181;SDS011;51963;46.052;14.544;2023-01-15T01:41:33;55.13;;;17.65;;
56181;SDS011;51963;46.052;14.544;2023-01-15T01:46:34;32.67;;;16.23;;
56181;SDS011;51963;46.052;14.544;2023-01-15T01:51:37;42.63;;;16.80;;
56181;SDS011;51963;46.052;14.544;2023-01-15T01:54:06;28.90;;;14.68;;
56181;SDS011;51963;46.052;14.544;2023-01-15T01:56:35;37.53;;;15.50;;
56181;SDS011;51963;46.052;14.544;2023-01-15T01:59:01;29.38;;;14.80;;
56181;SDS011;51963;46.052;14.544;2023-01-15T02:01:28;36.50;;;14.82;;
56181;SDS011;51963;46.052;14.544;2023-01-15T02:03:54;32.95;;;15.90;;
56181;SDS011;51963;46.052;14.544;2023-01-15T02:06:23;28.53;;;14.73;;
56181;SDS011;51963;46.052;14.544;2023-01-15T02:08:50;29.23;;;14.15;;
56181;SDS011;51963;46.052;14.544;2023-01-15T02:11:18;32.08;;;15.43;;
56181;SDS011;51963;46.052;14.544;2023-01-15T02:13:59;48.92;;;15.38;;
56181;SDS011;51963;46.052;14.544;2023-01-15T02:16:30;34.50;;;14.75;;
56181;SDS011;51963;46.052;14.544;2023-01-15T02:22:03;41.07;;;16.93;;
56181;SDS011;51963;46.052;14.544;2023-01-15T02:27:11;51.47;;;20.67;;
56181;SDS011;51963;46.052;14.544;2023-01-15T02:35:09;34.33;;;15.57;;
56181;SDS011;51963;46.052;14.544;2023-01-15T02:37:44;35.33;;;16.67;;
56181;SDS011;51963;46.052;14.544;2023-01-15T02:40:15;41.55;;;16.67;;
56181;SDS011;51963;46.052;14.544;2023-01-15T02:42:44;38.45;;;17.15;;
56181;SDS011;51963;46.052;14.544;2023-01-15T02:45:12;35.58;;;15.98;;
56181;SDS011;51963;46.052;14.544;2023-01-15T02:47:42;30.55;;;15.68;;
56181;SDS011;51963;46.052;14.544;2023-01-15T02:50:12;29.88;;;15.48;;
56181;SDS011;51963;46.052;14.544;2023-01-15T02:52:43;32.03;;;16.15;;
56181;SDS011;51963;46.052;14.544;2023-01-15T02:55:25;31.83;;;16.17;;
56181;SDS011;51963;46.052;14.544;2023-01-15T02:57:55;36.08;;;15.75;;
56181;SDS011;51963;46.052;14.544;2023-01-15T03:00:27;36.38;;;15.85;;
56181;SDS011;51963;46.052;14.544;2023-01-15T03:03:00;28.98;;;14.32;;
56181;SDS011;51963;46.052;14.544;2023-01-15T03:05:38;33.15;;;15.27;;
56181;SDS011;51963;46.052;14.544;2023-01-15T03:08:07;30.23;;;15.48;;
56181;SDS011;51963;46.052;14.544;2023-01-15T03:10:42;31.05;;;14.93;;
56181;SDS011;51963;46.052;14.544;2023-01-15T03:13:26;30.02;;;14.65;;
56181;SDS011;51963;46.052;14.544;2023-01-15T03:16:04;31.88;;;15.63;;
56181;SDS011;51963;46.052;14.544;2023-01-15T03:19:21;26.10;;;14.60;;
56181;SDS011;51963;46.052;14.544;2023-01-15T03:24:52;31.03;;;15.47;;
56181;SDS011;51963;46.052;14.544;2023-01-15T03:27:20;31.25;;;15.07;;
56181;SDS011;51963;46.052;14.544;2023-01-15T03:30:14;28.40;;;13.70;;
56181;SDS011;51963;46.052;14.544;2023-01-15T03:32:42;23.75;;;13.18;;
56181;SDS011;51963;46.052;14.544;2023-01-15T03:35:38;26.02;;;13.23;;
56181;SDS011;51963;46.052;14.544;2023-01-15T03:38:42;26.98;;;13.63;;
56181;SDS011;51963;46.052;14.544;2023-01-15T03:41:34;29.52;;;12.77;;
56181;SDS011;51963;46.052;14.544;2023-01-15T03:44:07;26.60;;;13.30;;
56181;SDS011;51963;46.052;14.544;2023-01-15T03:49:33;35.88;;;15.20;;
56181;SDS011;51963;46.052;14.544;2023-01-15T04:00:03;29.95;;;12.98;;
56181;SDS011;51963;46.052;14.544;2023-01-15T04:02:41;23.65;;;12.05;;
56181;SDS011;51963;46.052;14.544;2023-01-15T04:05:10;29.75;;;13.57;;
56181;SDS011;51963;46.052;14.544;2023-01-15T04:07:37;28.50;;;13.45;;
56181;SDS011;51963;46.052;14.544;2023-01-15T04:10:06;25.23;;;12.95;;
56181;SDS011;51963;46.052;14.544;2023-01-15T04:12:36;28.10;;;13.93;;
56181;SDS011;51963;46.052;14.544;2023-01-15T04:15:05;23.70;;;12.63;;
56181;SDS011;51963;46.052;14.544;2023-01-15T04:17:31;26.58;;;13.55;;
56181;SDS011;51963;46.052;14.544;2023-01-15T04:19:57;25.50;;;12.60;;
56181;SDS011;51963;46.052;14.544;2023-01-15T04:22:23;27.38;;;13.35;;
56181;SDS011;51963;46.052;14.544;2023-01-15T04:24:48;26.60;;;13.55;;
56181;SDS011;51963;46.052;14.544;2023-01-15T04:27:14;25.77;;;13.00;;
56181;SDS011;51963;46.052;14.544;2023-01-15T04:29:40;27.38;;;14.20;;
56181;SDS011;51963;46.052;14.544;2023-01-15T04:32:05;25.63;;;12.60;;
56181;SDS011;51963;46.052;14.544;2023-01-15T04:34:32;24.65;;;12.32;;
56181;SDS011;51963;46.052;14.544;2023-01-15T04:37:00;29.00;;;13.10;;
56181;SDS011;51963;46.052;14.544;2023-01-15T04:39:25;29.60;;;13.57;;
56181;SDS011;51963;46.052;14.544;2023-01-15T04:42:11;30.90;;;14.57;;
56181;SDS011;51963;46.052;14.544;2023-01-15T04:44:57;29.98;;;14.45;;
56181;SDS011;51963;46.052;14.544;2023-01-15T04:47:23;28.95;;;14.02;;
56181;SDS011;51963;46.052;14.544;2023-01-15T04:49:49;29.02;;;14.43;;
56181;SDS011;51963;46.052;14.544;2023-01-15T04:52:14;28.65;;;14.07;;
56181;SDS011;51963;46.052;14.544;2023-01-15T04:54:40;28.75;;;14.07;;
56181;SDS011;51963;46.052;14.544;2023-01-15T04:57:06;26.40;;;13.13;;
56181;SDS011;51963;46.052;14.544;2023-01-15T04:59:32;26.30;;;13.75;;
56181;SDS011;51963;46.052;14.544;2023-01-15T05:01:57;24.25;;;13.05;;
56181;SDS011;51963;46.052;14.544;2023-01-15T05:04:23;26.90;;;13.57;;
56181;SDS011;51963;46.052;14.544;2023-01-15T05:06:49;24.45;;;13.18;;
56181;SDS011;51963;46.052;14.544;2023-01-15T05:09:15;28.02;;;14.40;;
56181;SDS011;51963;46.052;14.544;2023-01-15T05:11:41;26.38;;;13.32;;
56181;SDS011;51963;46.052;14.544;2023-01-15T05:14:06;24.58;;;13.07;;
56181;SDS011;51963;46.052;14.544;2023-01-15T05:16:32;28.92;;;14.02;;
56181;SDS011;51963;46.052;14.544;2023-01-15T05:19:00;27.80;;;13.20;;
56181;SDS011;51963;46.052;14.544;2023-01-15T05:21:31;27.95;;;14.13;;
56181;SDS011;51963;46.052;14.544;2023-01-15T05:24:00;23.05;;;13.13;;
56181;SDS011;51963;46.052;14.544;2023-01-15T05:26:27;27.27;;;13.65;;
56181;SDS011;51963;46.052;14.544;2023-01-15T05:28:55;21.90;;;12.13;;
56181;SDS011;51963;46.052;14.544;2023-01-15T05:31:23;23.55;;;12.25;;
56181;SDS011;51963;46.052;14.544;2023-01-15T05:33:49;25.60;;;13.30;;
56181;SDS011;51963;46.052;14.544;2023-01-15T05:36:18;22.83;;;12.68;;
56181;SDS011;51963;46.052;14.544;2023-01-15T05:38:46;25.60;;;13.30;;
56181;SDS011;51963;46.052;14.544;2023-01-15T05:41:13;26.17;;;13.65;;
56181;SDS011;51963;46.052;14.544;2023-01-15T05:44:00;24.60;;;13.30;;
56181;SDS011;51963;46.052;14.544;2023-01-15T05:46:27;28.45;;;13.93;;
56181;SDS011;51963;46.052;14.544;2023-01-15T05:48:53;28.17;;;13.63;;
56181;SDS011;51963;46.052;14.544;2023-01-15T05:51:19;28.65;;;13.73;;
56181;SDS011;51963;46.052;14.544;2023-01-15T05:53:45;28.30;;;14.95;;
56181;SDS011;51963;46.052;14.544;2023-01-15T05:56:10;32.13;;;16.70;;
56181;SDS011;51963;46.052;14.544;2023-01-15T05:58:36;29.23;;;15.70;;
56181;SDS011;51963;46.052;14.544;2023-01-15T06:01:08;33.38;;;16.90;;
56181;SDS011;51963;46.052;14.544;2023-01-15T06:03:35;29.67;;;16.08;;
56181;SDS011;51963;46.052;14.544;2023-01-15T06:06:01;27.85;;;15.63;;
56181;SDS011;51963;46.052;14.544;2023-01-15T06:08:28;26.27;;;15.18;;
56181;SDS011;51963;46.052;14.544;2023-01-15T06:10:54;31.45;;;16.35;;
56181;SDS011;51963;46.052;14.544;2023-01-15T06:13:20;31.30;;;16.08;;
56181;SDS011;51963;46.052;14.544;2023-01-15T06:15:45;30.85;;;15.70;;
56181;SDS011;51963;46.052;14.544;2023-01-15T06:18:11;26.60;;;14.35;;
56181;SDS011;51963;46.052;14.544;2023-01-15T06:20:37;29.80;;;15.43;;
56181;SDS011;51963;46.052;14.544;2023-01-15T06:23:04;30.23;;;16.38;;
56181;SDS011;51963;46.052;14.544;2023-01-15T06:25:31;27.73;;;15.10;;
56181;SDS011;51963;46.052;14.544;2023-01-15T06:28:03;26.77;;;15.25;;
56181;SDS011;51963;46.052;14.544;2023-01-15T06:30:30;29.10;;;15.52;;
56181;SDS011;51963;46.052;14.544;2023-01-15T06:32:56;26.85;;;14.60;;
56181;SDS011;51963;46.052;14.544;2023-01-15T06:35:22;25.30;;;14.05;;
56181;SDS011;51963;46.052;14.544;2023-01-15T06:37:48;28.40;;;15.50;;
56181;SDS011;51963;46.052;14.544;2023-01-15T06:40:14;27.63;;;15.98;;
56181;SDS011;51963;46.052;14.544;2023-01-15T06:42:40;28.27;;;15.10;;
56181;SDS011;51963;46.052;14.544;2023-01-15T06:45:24;26.92;;;16.02;;
56181;SDS011;51963;46.052;14.544;2023-01-15T06:48:09;30.25;;;16.65;;
56181;SDS011;51963;46.052;14.544;2023-01-15T06:50:34;31.77;;;16.25;;
56181;SDS011;51963;46.052;14.544;2023-01-15T06:53:00;33.30;;;16.48;;
56181;SDS011;51963;46.052;14.544;2023-01-15T06:55:25;35.55;;;17.27;;
56181;SDS011;51963;46.052;14.544;2023-01-15T06:57:51;28.73;;;16.80;;
56181;SDS011;51963;46.052;14.544;2023-01-15T07:00:17;24.15;;;14.38;;
56181;SDS011;51963;46.052;14.544;2023-01-15T07:02:43;28.48;;;14.43;;
56181;SDS011;51963;46.052;14.544;2023-01-15T07:05:09;27.10;;;14.55;;
56181;SDS011;51963;46.052;14.544;2023-01-15T07:07:37;24.83;;;14.13;;
56181;SDS011;51963;46.052;14.544;2023-01-15T07:12:29;25.17;;;12.70;;
56181;SDS011;51963;46.052;14.544;2023-01-15T07:14:54;25.75;;;13.98;;
56181;SDS011;51963;46.052;14.544;2023-01-15T07:17:20;34.05;;;15.82;;
56181;SDS011;51963;46.052;14.544;2023-01-15T07:19:46;26.83;;;14.98;;
56181;SDS011;51963;46.052;14.544;2023-01-15T07:22:12;30.20;;;15.15;;
56181;SDS011;51963;46.052;14.544;2023-01-15T07:24:38;29.05;;;14.88;;
56181;SDS011;51963;46.052;14.544;2023-01-15T07:27:04;24.98;;;14.27;;
56181;SDS011;51963;46.052;14.544;2023-01-15T07:29:30;27.48;;;14.55;;
56181;SDS011;51963;46.052;14.544;2023-01-15T07:31:55;26.85;;;14.70;;
56181;SDS011;51963;46.052;14.544;2023-01-15T07:34:21;26.92;;;14.65;;
56181;SDS011;51963;46.052;14.544;2023-01-15T07:36:47;28.75;;;15.18;;
56181;SDS011;51963;46.052;14.544;2023-01-15T07:39:13;29.02;;;15.73;;
56181;SDS011;51963;46.052;14.544;2023-01-15T07:41:39;27.05;;;15.30;;
56181;SDS011;51963;46.052;14.544;2023-01-15T07:44:24;28.30;;;16.33;;
56181;SDS011;51963;46.052;14.544;2023-01-15T07:47:13;31.33;;;16.92;;
56181;SDS011;51963;46.052;14.544;2023-01-15T07:49:58;30.58;;;17.35;;
56181;SDS011;51963;46.052;14.544;2023-01-15T07:52:24;32.28;;;18.17;;
56181;SDS011;51963;46.052;14.544;2023-01-15T07:54:50;34.95;;;18.33;;
56181;SDS011;51963;46.052;14.544;2023-01-15T07:57:17;33.95;;;17.98;;
56181;SDS011;51963;46.052;14.544;2023-01-15T07:59:45;35.50;;;18.60;;
56181;SDS011;51963;46.052;14.544;2023-01-15T08:02:11;35.88;;;18.95;;
56181;SDS011;51963;46.052;14.544;2023-01-15T08:04:37;37.35;;;20.13;;
56181;SDS011;51963;46.052;14.544;2023-01-15T08:07:03;35.30;;;19.13;;
56181;SDS011;51963;46.052;14.544;2023-01-15T08:09:33;37.85;;;19.77;;
56181;SDS011;51963;46.052;14.544;2023-01-15T08:11:59;35.33;;;18.88;;
56181;SDS011;51963;46.052;14.544;2023-01-15T08:14:45;39.55;;;20.45;;
56181;SDS011;51963;46.052;14.544;2023-01-15T08:17:33;37.92;;;21.73;;
56181;SDS011;51963;46.052;14.544;2023-01-15T08:20:07;38.55;;;19.02;;
56181;SDS011;51963;46.052;14.544;2023-01-15T08:22:35;37.13;;;19.45;;
56181;SDS011;51963;46.052;14.544;2023-01-15T08:25:03;36.90;;;19.35;;
56181;SDS011;51963;46.052;14.544;2023-01-15T08:27:29;34.55;;;19.00;;
56181;SDS011;51963;46.052;14.544;2023-01-15T08:29:55;37.58;;;19.65;;
56181;SDS011;51963;46.052;14.544;2023-01-15T08:32:22;35.55;;;19.25;;
56181;SDS011;51963;46.052;14.544;2023-01-15T08:34:48;30.92;;;18.13;;
56181;SDS011;51963;46.052;14.544;2023-01-15T08:37:14;37.47;;;18.80;;
56181;SDS011;51963;46.052;14.544;2023-01-15T08:39:39;34.08;;;19.13;;
56181;SDS011;51963;46.052;14.544;2023-01-15T08:42:05;33.33;;;18.48;;
56181;SDS011;51963;46.052;14.544;2023-01-15T08:44:31;33.55;;;19.45;;
56181;SDS011;51963;46.052;14.544;2023-01-15T08:46:57;33.47;;;19.05;;
56181;SDS011;51963;46.052;14.544;2023-01-15T08:49:23;32.03;;;17.98;;
56181;SDS011;51963;46.052;14.544;2023-01-15T08:51:49;30.90;;;17.88;;
56181;SDS011;51963;46.052;14.544;2023-01-15T08:54:20;30.67;;;17.00;;
56181;SDS011;51963;46.052;14.544;2023-01-15T08:56:48;32.60;;;18.52;;
56181;SDS011;51963;46.052;14.544;2023-01-15T08:59:14;33.25;;;16.92;;
56181;SDS011;51963;46.052;14.544;2023-01-15T09:01:40;32.33;;;17.88;;
56181;SDS011;51963;46.052;14.544;2023-01-15T09:04:06;33.08;;;18.58;;
56181;SDS011;51963;46.052;14.544;2023-01-15T09:06:33;33.90;;;19.05;;
56181;SDS011;51963;46.052;14.544;2023-01-15T09:08:59;31.55;;;18.25;;
56181;SDS011;51963;46.052;14.544;2023-01-15T09:11:25;33.47;;;18.83;;
56181;SDS011;51963;46.052;14.544;2023-01-15T09:13:50;33.00;;;17.63;;
56181;SDS011;51963;46.052;14.544;2023-01-15T09:16:18;33.40;;;18.65;;
56181;SDS011;51963;46.052;14.544;2023-01-15T09:18:43;34.90;;;19.35;;
56181;SDS011;51963;46.052;14.544;2023-01-15T09:21:10;32.30;;;18.90;;
56181;SDS011;51963;46.052;14.544;2023-01-15T09:23:36;29.55;;;17.90;;
56181;SDS011;51963;46.052;14.544;2023-01-15T09:26:02;33.67;;;18.38;;
56181;SDS011;51963;46.052;14.544;2023-01-15T09:28:31;31.88;;;16.95;;
56181;SDS011;51963;46.052;14.544;2023-01-15T09:30:57;38.70;;;19.10;;
56181;SDS011;51963;46.052;14.544;2023-01-15T09:33:23;30.45;;;16.65;;
56181;SDS011;51963;46.052;14.544;2023-01-15T09:35:49;32.20;;;17.17;;
56181;SDS011;51963;46.052;14.544;2023-01-15T09:38:16;33.22;;;18.23;;
56181;SDS011;51963;46.052;14.544;2023-01-15T09:46:26;34.10;;;20.13;;
56181;SDS011;51963;46.052;14.544;2023-01-15T09:52:09;35.05;;;19.30;;
56181;SDS011;51963;46.052;14.544;2023-01-15T09:57:29;31.73;;;18.80;;
56181;SDS011;51963;46.052;14.544;2023-01-15T09:59:56;33.08;;;18.58;;
56181;SDS011;51963;46.052;14.544;2023-01-15T10:02:48;33.17;;;18.75;;
56181;SDS011;51963;46.052;14.544;2023-01-15T10:05:16;33.95;;;18.13;;
56181;SDS011;51963;46.052;14.544;2023-01-15T10:07:54;32.55;;;18.70;;
56181;SDS011;51963;46.052;14.544;2023-01-15T10:10:24;28.70;;;16.30;;
56181;SDS011;51963;46.052;14.544;2023-01-15T10:12:56;29.35;;;16.92;;
56181;SDS011;51963;46.052;14.544;2023-01-15T10:15:41;34.20;;;17.45;;
56181;SDS011;51963;46.052;14.544;2023-01-15T10:18:13;26.90;;;16.02;;
56181;SDS011;51963;46.052;14.544;2023-01-15T10:20:48;30.15;;;16.45;;
56181;SDS011;51963;46.052;14.544;2023-01-15T10:29:15;30.77;;;16.55;;
56181;SDS011;51963;46.052;14.544;2023-01-15T10:31:48;29.48;;;16.48;;
56181;SDS011;51963;46.052;14.544;2023-01-15T10:36:42;40.33;;;20.77;;
56181;SDS011;51963;46.052;14.544;2023-01-15T10:39:20;38.97;;;20.15;;
56181;SDS011;51963;46.052;14.544;2023-01-15T10:44:45;41.35;;;21.45;;
56181;SDS011;51963;46.052;14.544;2023-01-15T10:47:15;36.05;;;19.25;;
56181;SDS011;51963;46.052;14.544;2023-01-15T10:49:43;32.78;;;19.05;;
56181;SDS011;51963;46.052;14.544;2023-01-15T10:57:46;31.93;;;17.67;;
56181;SDS011;51963;46.052;14.544;2023-01-15T11:00:18;33.05;;;18.55;;
56181;SDS011;51963;46.052;14.544;2023-01-15T11:02:49;30.83;;;18.27;;
56181;SDS011;51963;46.052;14.544;2023-01-15T11:05:32;35.75;;;18.90;;
56181;SDS011;51963;46.052;14.544;2023-01-15T11:08:00;28.77;;;17.90;;
56181;SDS011;51963;46.052;14.544;2023-01-15T11:10:29;30.95;;;18.45;;
56181;SDS011;51963;46.052;14.544;2023-01-15T11:12:57;31.45;;;17.65;;
56181;SDS011;51963;46.052;14.544;2023-01-15T11:15:45;32.58;;;17.83;;
56181;SDS011;51963;46.052;14.544;2023-01-15T11:18:35;30.45;;;17.65;;
56181;SDS011;51963;46.052;14.544;2023-01-15T11:21:23;30.20;;;17.80;;
56181;SDS011;51963;46.052;14.544;2023-01-15T11:23:52;32.60;;;18.05;;
56181;SDS011;51963;46.052;14.544;2023-01-15T11:26:24;31.27;;;18.45;;
56181;SDS011;51963;46.052;14.544;2023-01-15T11:28:53;35.78;;;20.48;;
56181;SDS011;51963;46.052;14.544;2023-01-15T11:31:20;32.75;;;18.58;;
56181;SDS011;51963;46.052;14.544;2023-01-15T11:36:27;32.95;;;19.05;;
56181;SDS011;51963;46.052;14.544;2023-01-15T11:38:53;35.15;;;19.42;;
56181;SDS011;51963;46.052;14.544;2023-01-15T11:41:26;34.40;;;20.15;;
56181;SDS011;51963;46.052;14.544;2023-01-15T11:44:14;32.55;;;17.70;;
56181;SDS011;51963;46.052;14.544;2023-01-15T11:46:59;31.95;;;18.80;;
56181;SDS011;51963;46.052;14.544;2023-01-15T11:49:51;33.80;;;19.27;;
56181;SDS011;51963;46.052;14.544;2023-01-15T11:52:47;31.45;;;18.05;;
56181;SDS011;51963;46.052;14.544;2023-01-15T11:55:20;36.28;;;19.85;;
56181;SDS011;51963;46.052;14.544;2023-01-15T11:57:48;38.33;;;21.52;;
56181;SDS011;51963;46.052;14.544;2023-01-15T12:00:22;35.80;;;20.45;;
56181;SDS011;51963;46.052;14.544;2023-01-15T12:02:48;36.90;;;22.33;;
56181;SDS011;51963;46.052;14.544;2023-01-15T12:05:18;35.03;;;21.25;;
56181;SDS011;51963;46.052;14.544;2023-01-15T12:07:52;39.03;;;22.17;;
56181;SDS011;51963;46.052;14.544;2023-01-15T12:10:21;36.33;;;21.17;;
56181;SDS011;51963;46.052;14.544;2023-01-15T12:18:58;36.45;;;21.65;;
56181;SDS011;51963;46.052;14.544;2023-01-15T12:25:09;38.35;;;22.48;;
56181;SDS011;51963;46.052;14.544;2023-01-15T12:29:32;36.00;;;21.25;;
56181;SDS011;51963;46.052;14.544;2023-01-15T12:32:09;36.45;;;21.70;;
56181;SDS011;51963;46.052;14.544;2023-01-15T12:42:53;39.58;;;24.17;;
56181;SDS011;51963;46.052;14.544;2023-01-15T12:45:48;39.20;;;23.63;;
56181;SDS011;51963;46.052;14.544;2023-01-15T12:50:58;41.53;;;23.40;;
56181;SDS011;51963;46.052;14.544;2023-01-15T12:54:12;40.53;;;23.92;;
56181;SDS011;51963;46.052;14.544;2023-01-15T12:56:29;38.55;;;24.25;;
56181;SDS011;51963;46.052;14.544;2023-01-15T12:59:45;39.15;;;24.27;;
56181;SDS011;51963;46.052;14.544;2023-01-15T13:08:00;44.60;;;24.52;;
56181;SDS011;51963;46.052;14.544;2023-01-15T13:10:31;46.38;;;26.98;;
56181;SDS011;51963;46.052;14.544;2023-01-15T13:13:07;45.53;;;26.73;;
56181;SDS011;51963;46.052;14.544;2023-01-15T13:16:02;37.65;;;22.50;;
56181;SDS011;51963;46.052;14.544;2023-01-15T13:21:16;28.75;;;15.80;;
56181;SDS011;51963;46.052;14.544;2023-01-15T13:34:51;7.80;;;4.10;;
56181;SDS011;51963;46.052;14.544;2023-01-15T13:37:28;7.05;;;3.50;;
56181;SDS011;51963;46.052;14.544;2023-01-15T13:40:12;6.55;;;3.33;;
56181;SDS011;51963;46.052;14.544;2023-01-15T13:42:48;6.50;;;3.67;;
56181;SDS011;51963;46.052;14.544;2023-01-15T13:47:48;8.82;;;3.83;;
56181;SDS011;51963;46.052;14.544;2023-01-15T13:53:08;8.15;;;3.35;;
56181;SDS011;51963;46.052;14.544;2023-01-15T13:55:49;7.95;;;3.33;;
56181;SDS011;51963;46.052;14.544;2023-01-15T13:58:27;6.10;;;3.22;;
56181;SDS011;51963;46.052;14.544;2023-01-15T14:03:30;8.63;;;2.97;;
56181;SDS011;51963;46.052;14.544;2023-01-15T14:05:59;5.72;;;2.78;;
56181;SDS011;51963;46.052;14.544;2023-01-15T14:08:28;4.65;;;2.83;;
56181;SDS011;51963;46.052;14.544;2023-01-15T14:11:02;7.57;;;2.95;;
56181;SDS011;51963;46.052;14.544;2023-01-15T14:13:51;7.88;;;3.20;;
56181;SDS011;51963;46.052;14.544;2023-01-15T14:22:31;7.25;;;2.88;;
56181;SDS011;51963;46.052;14.544;2023-01-15T14:36:07;5.28;;;2.90;;
56181;SDS011;51963;46.052;14.544;2023-01-15T14:38:44;6.28;;;3.15;;
56181;SDS011;51963;46.052;14.544;2023-01-15T14:41:28;5.38;;;3.03;;
56181;SDS011;51963;46.052;14.544;2023-01-15T14:43:56;6.43;;;2.60;;
56181;SDS011;51963;46.052;14.544;2023-01-15T14:46:30;7.32;;;3.15;;
56181;SDS011;51963;46.052;14.544;2023-01-15T14:49:03;5.70;;;3.15;;
56181;SDS011;51963;46.052;14.544;2023-01-15T14:51:33;6.18;;;2.97;;
56181;SDS011;51963;46.052;14.544;2023-01-15T14:54:02;6.55;;;3.08;;
56181;SDS011;51963;46.052;14.544;2023-01-15T14:57:08;6.25;;;3.38;;
56181;SDS011;51963;46.052;14.544;2023-01-15T15:02:00;10.82;;;4.78;;
56181;SDS011;51963;46.052;14.544;2023-01-15T15:07:14;5.43;;;3.53;;
56181;SDS011;51963;46.052;14.544;2023-01-15T15:23:23;9.07;;;5.00;;
56181;SDS011;51963;46.052;14.544;2023-01-15T15:25:56;8.35;;;4.13;;
56181;SDS011;51963;46.052;14.544;2023-01-15T15:28:25;7.43;;;4.10;;
56181;SDS011;51963;46.052;14.544;2023-01-15T15:30:52;8.60;;;5.40;;
56181;SDS011;51963;46.052;14.544;2023-01-15T15:33:20;11.07;;;5.37;;
56181;SDS011;51963;46.052;14.544;2023-01-15T15:35:50;7.05;;;4.70;;
56181;SDS011;51963;46.052;14.544;2023-01-15T15:38:19;12.93;;;8.35;;
56181;SDS011;51963;46.052;14.544;2023-01-15T15:40:55;20.30;;;12.00;;
56181;SDS011;51963;46.052;14.544;2023-01-15T15:46:31;8.82;;;5.15;;
56181;SDS011;51963;46.052;14.544;2023-01-15T15:49:24;13.05;;;5.47;;
56181;SDS011;51963;46.052;14.544;2023-01-15T15:51:54;19.13;;;11.57;;
56181;SDS011;51963;46.052;14.544;2023-01-15T15:54:23;11.45;;;7.10;;
56181;SDS011;51963;46.052;14.544;2023-01-15T15:56:53;11.25;;;6.32;;
56181;SDS011;51963;46.052;14.544;2023-01-15T16:01:49;34.40;;;17.58;;
56181;SDS011;51963;46.052;14.544;2023-01-15T16:04:16;21.08;;;10.32;;
56181;SDS011;51963;46.052;14.544;2023-01-15T16:09:09;10.55;;;5.35;;
56181;SDS011;51963;46.052;14.544;2023-01-15T16:11:35;9.98;;;5.90;;
56181;SDS011;51963;46.052;14.544;2023-01-15T16:14:05;8.85;;;5.70;;
56181;SDS011;51963;46.052;14.544;2023-01-15T16:16:34;24.40;;;13.23;;
56181;SDS011;51963;46.052;14.544;2023-01-15T16:19:01;51.00;;;30.38;;
56181;SDS011;51963;46.052;14.544;2023-01-15T16:24:04;15.90;;;10.37;;
56181;SDS011;51963;46.052;14.544;2023-01-15T16:29:15;15.25;;;8.18;;
56181;SDS011;51963;46.052;14.544;2023-01-15T16:31:44;19.70;;;7.63;;
56181;SDS011;51963;46.052;14.544;2023-01-15T16:34:23;13.18;;;8.20;;
56181;SDS011;51963;46.052;14.544;2023-01-15T16:36:52;20.58;;;14.32;;
56181;SDS011;51963;46.052;14.544;2023-01-15T16:39:22;32.10;;;20.83;;
56181;SDS011;51963;46.052;14.544;2023-01-15T16:41:55;29.20;;;20.55;;
56181;SDS011;51963;46.052;14.544;2023-01-15T16:47:00;21.02;;;12.27;;
56181;SDS011;51963;46.052;14.544;2023-01-15T16:49:28;29.48;;;19.27;;
56181;SDS011;51963;46.052;14.544;2023-01-15T16:51:56;26.10;;;17.35;;
56181;SDS011;51963;46.052;14.544;2023-01-15T16:59:53;23.23;;;14.20;;
56181;SDS011;51963;46.052;14.544;2023-01-15T17:02:21;18.38;;;11.45;;
56181;SDS011;51963;46.052;14.544;2023-01-15T17:04:48;20.90;;;11.45;;
56181;SDS011;51963;46.052;14.544;2023-01-15T17:09:49;31.45;;;18.10;;
56181;SDS011;51963;46.052;14.544;2023-01-15T17:12:33;21.20;;;12.70;;
56181;SDS011;51963;46.052;14.544;2023-01-15T17:17:38;17.67;;;11.30;;
56181;SDS011;51963;46.052;14.544;2023-01-15T17:20:05;17.88;;;10.90;;
56181;SDS011;51963;46.052;14.544;2023-01-15T17:22:34;19.75;;;11.77;;
56181;SDS011;51963;46.052;14.544;2023-01-15T17:25:01;20.20;;;11.45;;
56181;SDS011;51963;46.052;14.544;2023-01-15T17:27:44;20.10;;;12.07;;
56181;SDS011;51963;46.052;14.544;2023-01-15T17:30:11;22.35;;;12.77;;